Terminal Aerodrome Forecast
Issued by NWS

Home | Current Version | Previous Version | Text Only | Print | Product List | Glossary On
Versions: 1 2 3 4 5 6 7 8 9 10 11 12 13
957
FTUS43 KEAX 231726
TAFMKC
TAF
KMKC 231726Z 2318/2418 17014G20KT P6SM SCT060
     FM240300 18012KT P6SM SCT150 WS020/19050KT
     FM241400 19015G25KT P6SM VCSH BKN040=

USA.gov is the U.S. government's official web portal to all federal, state and local government web resources and services.